createdAt,value
2018-07-06T00:02:49.188Z,15.30
2018-07-06T00:06:31.649Z,15.30
2018-07-06T00:10:13.783Z,15.30
2018-07-06T00:13:55.603Z,15.20
2018-07-06T00:17:19.165Z,15.20
2018-07-06T00:20:42.709Z,15.20
2018-07-06T00:24:24.666Z,15.20
2018-07-06T00:27:47.686Z,15.20
2018-07-06T00:31:10.854Z,15.20
2018-07-06T00:34:52.595Z,15.10
2018-07-06T00:38:34.119Z,15.10
2018-07-06T00:41:57.531Z,15.20
2018-07-06T00:45:39.423Z,15.10
2018-07-06T00:49:02.661Z,15.10
2018-07-06T00:52:44.460Z,15.10
2018-07-06T00:56:26.385Z,15.10
2018-07-06T00:59:49.636Z,15.10
2018-07-06T01:03:13.030Z,15.10
2018-07-06T01:06:54.791Z,15.00
2018-07-06T01:10:17.887Z,15.00
2018-07-06T01:13:40.945Z,15.00
2018-07-06T01:17:22.640Z,14.90
2018-07-06T01:20:46.119Z,14.90
2018-07-06T01:24:27.982Z,14.90
2018-07-06T01:28:09.508Z,14.90
2018-07-06T01:31:32.608Z,14.80
2018-07-06T01:34:55.799Z,14.70
2018-07-06T01:38:37.221Z,14.70
2018-07-06T01:42:19.186Z,14.70
2018-07-06T01:45:42.362Z,14.70
2018-07-06T01:49:24.214Z,14.80
2018-07-06T01:53:05.860Z,14.70
2018-07-06T01:56:47.589Z,14.70
2018-07-06T02:00:29.413Z,14.80
2018-07-06T02:04:11.081Z,14.80
2018-07-06T02:07:53.465Z,14.80
2018-07-06T02:11:35.095Z,14.70
2018-07-06T02:15:16.765Z,14.70
2018-07-06T02:18:58.581Z,14.80
2018-07-06T02:26:10.241Z,14.70
2018-07-06T02:29:52.031Z,14.80
2018-07-06T02:33:15.272Z,14.70
2018-07-06T02:36:57.367Z,14.70
2018-07-06T02:40:39.156Z,14.80
2018-07-06T02:44:20.911Z,14.70
2018-07-06T02:48:02.782Z,14.70
2018-07-06T02:51:44.607Z,14.60
2018-07-06T02:55:26.973Z,14.60
2018-07-06T02:59:08.838Z,14.60
2018-07-06T03:02:50.631Z,14.60
2018-07-06T03:06:13.900Z,14.60
2018-07-06T03:09:37.155Z,14.60
2018-07-06T03:13:18.870Z,14.60
2018-07-06T03:17:00.539Z,14.60
2018-07-06T03:20:42.503Z,14.60
2018-07-06T03:24:24.558Z,14.60
2018-07-06T03:28:06.156Z,14.70
2018-07-06T03:31:29.290Z,14.60
2018-07-06T03:34:52.468Z,14.70
2018-07-06T03:38:34.175Z,14.70
2018-07-06T03:42:16.009Z,14.70
2018-07-06T03:45:57.715Z,14.80
2018-07-06T03:49:39.653Z,14.90
2018-07-06T03:53:20.907Z,15.10
2018-07-06T03:57:02.765Z,15.10
2018-07-06T04:00:44.769Z,15.10
2018-07-06T04:04:08.395Z,15.00
2018-07-06T04:07:31.818Z,15.00
2018-07-06T04:10:55.217Z,15.00
2018-07-06T04:14:37.244Z,15.00
2018-07-06T04:18:00.712Z,15.00
2018-07-06T04:21:42.155Z,15.10
2018-07-06T04:25:23.941Z,15.00
2018-07-06T04:29:05.767Z,15.10
2018-07-06T04:32:47.684Z,15.20
2018-07-06T04:36:29.600Z,15.20
2018-07-06T04:40:11.341Z,15.30
2018-07-06T04:43:52.946Z,15.40
2018-07-06T04:47:34.809Z,15.40
2018-07-06T04:51:16.767Z,15.50
2018-07-06T04:54:58.808Z,15.50
2018-07-06T04:58:40.880Z,15.60
2018-07-06T05:02:22.718Z,15.70
2018-07-06T05:06:04.671Z,15.90
2018-07-06T05:09:46.482Z,15.90
2018-07-06T05:13:28.074Z,15.90
2018-07-06T05:17:09.602Z,16.00
2018-07-06T05:20:51.600Z,16.00
2018-07-06T05:24:33.389Z,16.00
2018-07-06T05:28:15.063Z,15.90
2018-07-06T05:31:56.749Z,15.90
2018-07-06T05:35:19.953Z,15.90
2018-07-06T05:38:44.224Z,15.90
2018-07-06T05:42:07.379Z,15.90
2018-07-06T05:45:49.987Z,15.90
2018-07-06T05:49:32.097Z,15.90
2018-07-06T05:53:13.868Z,15.90
2018-07-06T05:56:55.722Z,15.90
2018-07-06T06:00:18.948Z,15.90
2018-07-06T06:04:00.525Z,15.90
2018-07-06T06:07:24.114Z,16.00
2018-07-06T06:09:52.132Z,16.00
2018-07-06T06:12:20.288Z,16.00
2018-07-06T06:14:48.650Z,16.00
2018-07-06T06:17:16.588Z,16.10
2018-07-06T06:19:44.555Z,16.20
2018-07-06T06:22:12.543Z,16.10
2018-07-06T06:24:40.474Z,16.20
2018-07-06T06:27:08.676Z,16.10
2018-07-06T06:29:36.660Z,16.20
2018-07-06T06:32:05.466Z,16.10
2018-07-06T06:34:33.399Z,16.10
2018-07-06T06:37:01.779Z,16.00
2018-07-06T06:39:30.143Z,15.90
2018-07-06T06:41:58.029Z,16.00
2018-07-06T06:44:26.031Z,16.00
2018-07-06T06:46:54.049Z,15.90
2018-07-06T06:49:21.982Z,15.90
2018-07-06T06:51:49.924Z,15.90
2018-07-06T06:54:17.841Z,15.60
2018-07-06T06:56:45.815Z,15.70
2018-07-06T06:59:13.808Z,15.70
2018-07-06T07:01:41.758Z,15.80
2018-07-06T07:04:09.688Z,15.80
2018-07-06T07:06:38.085Z,15.50
2018-07-06T07:09:06.275Z,15.50
2018-07-06T07:11:34.627Z,15.60
2018-07-06T07:14:02.667Z,15.60
2018-07-06T07:16:30.726Z,15.70
2018-07-06T07:18:58.804Z,15.50
2018-07-06T07:21:26.767Z,15.60
2018-07-06T07:23:54.684Z,15.60
2018-07-06T07:26:22.673Z,15.60
2018-07-06T07:28:50.623Z,15.60
2018-07-06T07:31:18.656Z,15.60
2018-07-06T07:33:46.602Z,15.40
2018-07-06T07:36:14.588Z,15.40
2018-07-06T07:38:42.565Z,15.30
2018-07-06T07:41:10.505Z,15.50
2018-07-06T07:43:38.411Z,15.40
2018-07-06T07:46:06.355Z,15.30
2018-07-06T07:48:34.282Z,15.40
2018-07-06T07:51:48.579Z,15.30
2018-07-06T07:54:29.584Z,15.40
2018-07-06T07:56:58.697Z,15.50
2018-07-06T07:59:30.627Z,15.50
2018-07-06T08:01:59.519Z,15.40
2018-07-06T08:04:27.403Z,15.50
2018-07-06T08:06:55.874Z,15.50
2018-07-06T08:09:24.274Z,15.50
2018-07-06T08:11:53.732Z,15.50
2018-07-06T08:14:22.447Z,15.50
2018-07-06T08:16:50.531Z,15.60
2018-07-06T08:19:18.653Z,15.50
2018-07-06T08:21:46.995Z,15.60
2018-07-06T08:24:15.044Z,15.60
2018-07-06T08:26:42.994Z,15.70
2018-07-06T08:29:11.002Z,15.70
2018-07-06T08:31:39.179Z,15.70
2018-07-06T08:35:02.441Z,15.70
2018-07-06T08:38:07.198Z,15.90
2018-07-06T08:40:35.211Z,15.90
2018-07-06T08:43:04.397Z,16.00
2018-07-06T08:45:33.019Z,16.10
2018-07-06T08:48:00.939Z,16.00
2018-07-06T08:50:29.020Z,16.20
2018-07-06T08:52:57.292Z,16.20
2018-07-06T08:55:25.765Z,16.30
2018-07-06T08:57:54.989Z,16.20
2018-07-06T09:00:22.914Z,16.30
2018-07-06T09:02:50.877Z,16.00
2018-07-06T09:05:18.789Z,16.20
2018-07-06T09:07:46.709Z,16.20
2018-07-06T09:10:14.664Z,16.20
2018-07-06T09:12:42.648Z,16.20
2018-07-06T09:15:10.627Z,16.20
2018-07-06T09:17:38.573Z,16.30
2018-07-06T09:20:06.691Z,16.50
2018-07-06T09:22:34.487Z,16.30
2018-07-06T09:25:03.693Z,16.80
2018-07-06T09:27:31.628Z,16.90
2018-07-06T09:29:59.582Z,17.00
2018-07-06T09:32:27.523Z,17.40
2018-07-06T09:34:55.451Z,17.40
2018-07-06T09:37:23.508Z,17.30
2018-07-06T09:39:51.467Z,17.10
2018-07-06T09:42:19.598Z,17.30
2018-07-06T09:44:47.534Z,17.30
2018-07-06T09:47:15.511Z,17.00
2018-07-06T09:49:43.488Z,17.30
2018-07-06T09:52:11.420Z,17.60
2018-07-06T09:54:39.329Z,17.50
2018-07-06T09:57:07.249Z,17.40
2018-07-06T09:59:35.208Z,17.60
2018-07-06T10:02:03.214Z,17.80
2018-07-06T10:04:31.333Z,17.60
2018-07-06T10:06:59.252Z,17.40
2018-07-06T10:09:27.198Z,17.90
2018-07-06T10:11:55.101Z,17.70
2018-07-06T10:14:23.030Z,17.80
2018-07-06T10:16:50.970Z,18.10
2018-07-06T10:19:18.888Z,18.00
2018-07-06T10:21:46.849Z,18.20
2018-07-06T10:24:14.746Z,18.20
2018-07-06T10:26:42.670Z,18.40
2018-07-06T10:30:28.977Z,18.40
2018-07-06T10:32:56.985Z,18.50
2018-07-06T10:35:24.884Z,18.80
2018-07-06T10:37:52.803Z,18.40
2018-07-06T10:40:20.762Z,19.20
2018-07-06T10:42:48.684Z,19.00
2018-07-06T10:45:16.621Z,19.20
2018-07-06T10:47:44.573Z,19.40
2018-07-06T10:50:12.532Z,20.00
2018-07-06T10:52:40.460Z,20.10
2018-07-06T10:55:08.388Z,20.40
2018-07-06T10:57:36.336Z,20.70
2018-07-06T11:00:04.304Z,20.20
2018-07-06T11:02:32.285Z,19.90
2018-07-06T11:05:00.209Z,19.20
2018-07-06T11:07:28.112Z,19.50
2018-07-06T11:09:56.064Z,19.80
2018-07-06T11:12:23.978Z,19.90
2018-07-06T11:14:51.929Z,19.50
2018-07-06T11:17:19.834Z,19.70
2018-07-06T11:19:47.769Z,19.50
2018-07-06T11:22:15.703Z,19.30
2018-07-06T11:24:43.619Z,19.40
2018-07-06T11:27:11.552Z,19.20
2018-07-06T11:29:39.495Z,19.30
2018-07-06T11:32:07.445Z,19.40
2018-07-06T11:34:35.370Z,19.60
2018-07-06T11:37:03.302Z,19.00
2018-07-06T11:39:31.243Z,18.80
2018-07-06T11:41:59.215Z,19.00
2018-07-06T11:44:27.129Z,19.00
2018-07-06T11:46:55.079Z,18.70
2018-07-06T11:49:22.996Z,18.60
2018-07-06T11:51:50.936Z,18.90
2018-07-06T11:54:18.855Z,19.00
2018-07-06T11:56:46.807Z,19.00
2018-07-06T11:59:14.758Z,19.10
2018-07-06T12:01:42.759Z,18.90
2018-07-06T12:04:10.687Z,18.70
2018-07-06T12:06:38.585Z,18.40
2018-07-06T12:09:06.571Z,18.50
2018-07-06T12:11:34.497Z,18.80
2018-07-06T12:14:02.483Z,18.80
2018-07-06T12:16:30.425Z,18.80
2018-07-06T12:18:58.379Z,19.10
2018-07-06T12:21:26.301Z,19.20
2018-07-06T12:23:54.223Z,19.30
2018-07-06T12:26:23.030Z,19.30
2018-07-06T12:28:51.426Z,19.50
2018-07-06T12:31:19.344Z,19.60
2018-07-06T12:33:47.340Z,19.70
2018-07-06T12:36:15.283Z,19.80
2018-07-06T12:38:43.232Z,19.80
2018-07-06T12:41:11.157Z,20.10
2018-07-06T12:43:39.093Z,20.40
2018-07-06T12:46:07.020Z,19.80
2018-07-06T12:48:34.933Z,19.80
2018-07-06T12:51:02.925Z,20.40
2018-07-06T12:53:30.868Z,20.60
2018-07-06T12:55:58.823Z,20.30
2018-07-06T12:58:26.819Z,21.00
2018-07-06T13:00:54.696Z,20.40
2018-07-06T13:03:22.627Z,21.30
2018-07-06T13:05:50.555Z,21.60
2018-07-06T13:08:18.489Z,20.90
2018-07-06T13:10:46.413Z,21.10
2018-07-06T13:13:14.367Z,20.90
2018-07-06T13:15:42.301Z,21.30
2018-07-06T13:18:10.267Z,21.50
2018-07-06T13:20:38.193Z,21.50
2018-07-06T13:23:06.128Z,21.20
2018-07-06T13:25:34.080Z,20.80
2018-07-06T13:28:01.976Z,20.80
2018-07-06T13:30:29.928Z,22.10
2018-07-06T13:32:57.887Z,22.10
2018-07-06T13:35:25.760Z,21.50
2018-07-06T13:37:53.721Z,21.40
2018-07-06T13:40:21.642Z,21.00
2018-07-06T13:42:49.600Z,21.50
2018-07-06T13:45:17.535Z,21.90
2018-07-06T13:47:45.479Z,21.30
2018-07-06T13:50:13.420Z,21.10
2018-07-06T13:52:41.395Z,21.00
2018-07-06T13:55:09.335Z,21.30
2018-07-06T13:57:37.295Z,21.60
2018-07-06T14:00:05.256Z,21.60
2018-07-06T14:02:33.210Z,21.80
2018-07-06T14:05:01.220Z,20.80
2018-07-06T14:07:29.087Z,21.10
2018-07-06T14:09:57.052Z,21.70
2018-07-06T14:12:24.989Z,20.70
2018-07-06T14:14:52.905Z,21.40
2018-07-06T14:17:20.904Z,21.00
2018-07-06T14:19:48.812Z,21.40
2018-07-06T14:22:16.763Z,21.80
2018-07-06T14:24:44.725Z,21.40
2018-07-06T14:27:12.656Z,21.40
2018-07-06T14:29:40.614Z,21.40
2018-07-06T14:32:08.595Z,21.00
2018-07-06T14:34:36.580Z,20.90
2018-07-06T14:37:04.497Z,21.90
2018-07-06T14:39:32.450Z,22.30
2018-07-06T14:42:00.523Z,21.10
2018-07-06T14:44:28.448Z,21.90
2018-07-06T14:46:56.426Z,21.80
2018-07-06T14:49:24.309Z,21.30
2018-07-06T14:51:52.353Z,22.10
2018-07-06T14:54:20.262Z,22.80
2018-07-06T14:56:48.172Z,22.10
2018-07-06T14:59:16.125Z,24.30
2018-07-06T15:01:44.081Z,29.60
2018-07-06T15:04:12.061Z,27.50
2018-07-06T15:06:40.017Z,29.00
2018-07-06T15:09:08.042Z,30.20
2018-07-06T15:11:35.920Z,28.50
2018-07-06T15:14:03.867Z,27.90
2018-07-06T15:16:31.828Z,27.50
2018-07-06T15:18:59.738Z,26.60
2018-07-06T15:21:27.667Z,26.40
2018-07-06T15:23:55.620Z,26.20
2018-07-06T15:26:23.543Z,27.10
2018-07-06T15:28:51.693Z,25.90
2018-07-06T15:31:19.688Z,24.70
2018-07-06T15:33:47.585Z,25.90
2018-07-06T15:36:15.650Z,25.20
2018-07-06T15:38:43.685Z,26.50
2018-07-06T15:41:11.646Z,25.60
2018-07-06T15:43:39.557Z,25.10
2018-07-06T15:46:07.544Z,25.70
2018-07-06T15:48:35.470Z,25.20
2018-07-06T15:51:03.433Z,24.70
2018-07-06T15:53:31.394Z,24.00
2018-07-06T15:55:59.319Z,23.50
2018-07-06T15:58:27.291Z,22.60
2018-07-06T16:00:55.213Z,21.70
2018-07-06T16:03:23.164Z,22.40
2018-07-06T16:05:51.084Z,22.60
2018-07-06T16:08:19.036Z,21.90
2018-07-06T16:10:46.979Z,22.40
2018-07-06T16:13:14.916Z,23.00
2018-07-06T16:15:42.893Z,22.30
2018-07-06T16:18:10.842Z,22.30
2018-07-06T16:20:38.827Z,21.60
2018-07-06T16:23:06.798Z,21.60
2018-07-06T16:25:34.836Z,21.50
2018-07-06T16:28:02.783Z,21.20
2018-07-06T16:30:30.693Z,20.70
2018-07-06T16:32:58.659Z,20.40
2018-07-06T16:35:26.595Z,20.20
2018-07-06T16:37:54.544Z,20.00
2018-07-06T16:40:22.493Z,19.80
2018-07-06T16:42:50.487Z,19.90
2018-07-06T16:45:18.459Z,19.70
2018-07-06T16:47:46.411Z,19.80
2018-07-06T16:50:14.409Z,19.30
2018-07-06T16:52:42.323Z,18.90
2018-07-06T16:55:10.299Z,18.70
2018-07-06T16:57:38.233Z,18.50
2018-07-06T17:00:06.185Z,18.30
2018-07-06T17:02:34.155Z,18.20
2018-07-06T17:05:02.072Z,18.00
2018-07-06T17:07:30.033Z,18.00
2018-07-06T17:09:57.965Z,18.20
2018-07-06T17:12:25.927Z,18.00
2018-07-06T17:14:53.911Z,18.20
2018-07-06T17:17:21.831Z,18.00
2018-07-06T17:19:49.804Z,17.90
2018-07-06T17:22:17.733Z,17.70
2018-07-06T17:24:45.665Z,17.70
2018-07-06T17:27:13.638Z,17.80
2018-07-06T17:29:41.656Z,17.50
2018-07-06T17:32:09.625Z,17.60
2018-07-06T17:34:37.555Z,17.30
2018-07-06T17:37:05.683Z,17.30
2018-07-06T17:39:33.664Z,17.60
2018-07-06T17:42:01.574Z,17.40
2018-07-06T17:44:29.541Z,17.70
2018-07-06T17:46:57.494Z,17.50
2018-07-06T17:49:25.417Z,17.50
2018-07-06T17:51:53.547Z,17.70
2018-07-06T17:54:21.506Z,17.70
2018-07-06T17:56:49.459Z,17.50
2018-07-06T17:59:17.359Z,17.30
2018-07-06T18:01:45.292Z,17.50
2018-07-06T18:04:13.381Z,17.10
2018-07-06T18:06:41.299Z,17.20
2018-07-06T18:09:09.243Z,17.20
2018-07-06T18:11:37.194Z,17.50
2018-07-06T18:14:05.167Z,17.40
2018-07-06T18:16:33.138Z,17.00
2018-07-06T18:19:01.074Z,16.90
2018-07-06T18:21:29.031Z,17.00
2018-07-06T18:23:56.942Z,17.70
2018-07-06T18:26:24.911Z,17.90
2018-07-06T18:28:52.832Z,18.50
2018-07-06T18:31:20.777Z,18.20
2018-07-06T18:33:48.712Z,18.50
2018-07-06T18:36:16.670Z,18.80
2018-07-06T18:38:44.627Z,18.70
2018-07-06T18:41:12.569Z,18.70
2018-07-06T18:43:40.483Z,19.10
2018-07-06T18:46:08.400Z,18.90
2018-07-06T18:48:36.353Z,18.90
2018-07-06T18:51:04.254Z,18.60
2018-07-06T18:53:32.206Z,18.30
2018-07-06T18:56:00.126Z,18.40
2018-07-06T18:58:28.111Z,17.90
2018-07-06T19:00:56.037Z,17.50
2018-07-06T19:03:23.986Z,17.50
2018-07-06T19:05:51.928Z,17.80
2018-07-06T19:08:19.879Z,17.60
2018-07-06T19:10:47.819Z,17.60
2018-07-06T19:13:15.804Z,17.60
2018-07-06T19:15:43.739Z,17.60
2018-07-06T19:18:11.756Z,17.50
2018-07-06T19:20:39.732Z,17.40
2018-07-06T19:23:07.667Z,17.30
2018-07-06T19:25:35.629Z,17.20
2018-07-06T19:28:03.855Z,17.10
2018-07-06T19:30:31.927Z,16.90
2018-07-06T19:32:59.850Z,16.70
2018-07-06T19:35:27.786Z,16.90
2018-07-06T19:37:55.729Z,16.80
2018-07-06T19:40:23.644Z,16.60
2018-07-06T19:42:51.604Z,16.40
2018-07-06T19:45:19.545Z,16.50
2018-07-06T19:47:47.461Z,16.50
2018-07-06T19:50:15.477Z,16.60
2018-07-06T19:52:44.111Z,16.40
2018-07-06T19:55:12.066Z,16.10
2018-07-06T19:57:40.018Z,16.50
2018-07-06T20:00:07.928Z,16.30
2018-07-06T20:02:35.863Z,16.50
2018-07-06T20:05:03.796Z,16.20
2018-07-06T20:07:31.784Z,16.30
2018-07-06T20:09:59.738Z,16.40
2018-07-06T20:12:27.697Z,16.30
2018-07-06T20:14:55.681Z,16.30
2018-07-06T20:17:23.614Z,16.10
2018-07-06T20:19:51.566Z,16.10
2018-07-06T20:22:19.488Z,16.20
2018-07-06T20:24:47.735Z,16.10
2018-07-06T20:27:16.846Z,16.10
2018-07-06T20:29:44.806Z,16.10
2018-07-06T20:32:12.797Z,16.10
2018-07-06T20:34:40.766Z,16.10
2018-07-06T20:37:08.761Z,16.10
2018-07-06T20:39:37.458Z,16.20
2018-07-06T20:42:05.515Z,16.10
2018-07-06T20:44:33.475Z,16.00
2018-07-06T20:47:01.455Z,16.10
2018-07-06T20:49:29.391Z,16.10
2018-07-06T20:51:57.382Z,16.00
2018-07-06T20:54:25.404Z,16.10
2018-07-06T20:56:53.628Z,16.20
2018-07-06T20:59:21.592Z,16.00
2018-07-06T21:01:51.271Z,16.00
2018-07-06T21:04:19.260Z,16.10
2018-07-06T21:06:47.192Z,16.10
2018-07-06T21:09:15.138Z,16.10
2018-07-06T21:11:43.137Z,16.00
2018-07-06T21:14:12.504Z,16.00
2018-07-06T21:16:40.413Z,15.90
2018-07-06T21:19:08.366Z,15.70
2018-07-06T21:21:37.386Z,15.80
2018-07-06T21:24:05.329Z,15.80
2018-07-06T21:26:33.307Z,15.70
2018-07-06T21:29:01.244Z,15.70
2018-07-06T21:31:29.188Z,15.80
2018-07-06T21:33:57.129Z,15.80
2018-07-06T21:36:25.070Z,15.80
2018-07-06T21:38:53.633Z,15.80
2018-07-06T21:41:21.821Z,15.80
2018-07-06T21:43:49.959Z,15.90
2018-07-06T21:46:17.911Z,15.90
2018-07-06T21:48:45.866Z,15.90
2018-07-06T21:51:13.880Z,15.70
2018-07-06T21:53:41.806Z,15.70
2018-07-06T21:56:09.758Z,15.60
2018-07-06T21:58:37.691Z,15.70
2018-07-06T22:01:05.583Z,15.80
2018-07-06T22:03:33.592Z,15.70
2018-07-06T22:06:01.533Z,15.90
2018-07-06T22:08:29.476Z,15.80
2018-07-06T22:10:57.830Z,15.80
2018-07-06T22:13:26.651Z,15.90
2018-07-06T22:15:54.773Z,15.80
2018-07-06T22:18:23.554Z,15.80
2018-07-06T22:20:51.501Z,15.70
2018-07-06T22:23:19.411Z,15.70
2018-07-06T22:25:47.351Z,15.70
2018-07-06T22:28:15.328Z,15.80
2018-07-06T22:30:43.291Z,15.80
2018-07-06T22:33:11.237Z,15.80
2018-07-06T22:35:39.315Z,15.80
2018-07-06T22:38:07.272Z,15.80
2018-07-06T22:40:35.196Z,15.70
2018-07-06T22:43:03.188Z,15.60
2018-07-06T22:45:32.850Z,15.70
2018-07-06T22:48:00.783Z,15.70
2018-07-06T22:50:28.757Z,15.80
2018-07-06T22:52:56.731Z,15.80
2018-07-06T22:55:24.714Z,15.80
2018-07-06T22:57:52.661Z,15.80
2018-07-06T23:00:20.695Z,15.70
2018-07-06T23:02:48.660Z,15.60
2018-07-06T23:05:18.022Z,15.70
2018-07-06T23:07:45.921Z,15.70
2018-07-06T23:10:13.858Z,15.60
2018-07-06T23:12:41.835Z,15.70
2018-07-06T23:15:09.748Z,15.70
2018-07-06T23:17:39.041Z,15.70
2018-07-06T23:20:07.185Z,15.50
2018-07-06T23:23:13.333Z,15.50
2018-07-06T23:25:44.973Z,15.50
2018-07-06T23:28:13.215Z,15.50
2018-07-06T23:30:41.149Z,15.40
2018-07-06T23:33:11.625Z,15.30
2018-07-06T23:35:39.720Z,15.40
2018-07-06T23:38:07.761Z,15.50
2018-07-06T23:40:35.801Z,15.60
2018-07-06T23:43:03.770Z,15.50
2018-07-06T23:45:31.702Z,15.40
2018-07-06T23:47:59.655Z,15.40
2018-07-06T23:50:27.588Z,15.40
2018-07-06T23:52:55.666Z,15.50
2018-07-06T23:55:23.614Z,15.50
2018-07-06T23:57:52.048Z,15.50
